Time;durP1;ratioP1;P1;durP2;ratioP2;P2;SDS_P1;SDS_P2;PMS_P1;PMS_P2;Temp;Humidity;BMP_temperature;BMP_pressure;BME280_temperature;BME280_humidity;BME280_pressure;Samples;Min_cycle;Max_cycle;Signal;HPM_P1;HPM_P2
2022/01/19 00:00:08;;;;;;;52.80;33.03;;;;;;;3.80;100.00;102086.41;4924294;28;20035;-73
2022/01/19 00:02:33;;;;;;;60.78;33.58;;;;;;;3.79;100.00;102082.81;4911385;28;20035;-72
2022/01/19 00:04:59;;;;;;;59.15;32.60;;;;;;;3.77;100.00;102087.66;4914006;29;20071;-73
2022/01/19 00:07:24;;;;;;;56.50;32.78;;;;;;;3.78;100.00;102092.09;4937090;28;20066;-72
2022/01/19 00:09:50;;;;;;;56.08;33.28;;;;;;;3.78;100.00;102094.84;4925095;28;20027;-72
2022/01/19 00:12:15;;;;;;;57.08;32.40;;;;;;;3.76;100.00;102096.97;4941244;28;20034;-73
2022/01/19 00:14:41;;;;;;;54.75;31.70;;;;;;;3.76;100.00;102096.97;4925577;28;20479;-72
2022/01/19 00:17:06;;;;;;;55.80;32.17;;;;;;;3.79;100.00;102093.81;4939723;28;20038;-73
2022/01/19 00:19:32;;;;;;;54.30;32.17;;;;;;;3.77;100.00;102087.66;4927236;29;20094;-72
2022/01/19 00:21:57;;;;;;;55.78;31.80;;;;;;;3.80;100.00;102080.91;4945097;28;20069;-73
2022/01/19 00:24:23;;;;;;;53.05;31.23;;;;;;;3.78;100.00;102075.63;4940139;29;20496;-73
2022/01/19 00:26:48;;;;;;;52.65;31.25;;;;;;;3.79;100.00;102063.59;4940760;29;20030;-72
2022/01/19 00:29:14;;;;;;;55.88;31.63;;;;;;;3.78;100.00;102053.63;4908791;29;20031;-73
2022/01/19 00:31:39;;;;;;;53.85;31.10;;;;;;;3.75;100.00;102045.81;4909308;29;20035;-72
2022/01/19 00:34:04;;;;;;;50.63;30.50;;;;;;;3.77;100.00;102045.59;4894499;29;20842;-73
2022/01/19 00:36:30;;;;;;;50.63;29.88;;;;;;;3.78;100.00;102025.31;4926276;28;20035;-72
2022/01/19 00:38:55;;;;;;;50.83;30.05;;;;;;;3.77;100.00;102021.72;4918560;29;20064;-73
2022/01/19 00:41:21;;;;;;;48.88;29.15;;;;;;;3.77;100.00;102010.72;4924370;29;20043;-72
2022/01/19 00:43:46;;;;;;;48.22;29.33;;;;;;;3.78;100.00;102006.91;4910961;29;20035;-72
2022/01/19 00:46:12;;;;;;;51.60;29.80;;;;;;;3.76;100.00;102014.53;4948175;29;20432;-72
2022/01/19 00:48:40;;;;;;;50.92;29.10;;;;;;;3.74;100.00;102024.88;4926920;29;20035;-72
2022/01/19 00:51:05;;;;;;;51.40;30.23;;;;;;;3.75;100.00;102034.81;4958038;28;20050;-72
2022/01/19 00:53:31;;;;;;;51.13;29.33;;;;;;;3.75;100.00;102032.06;4920680;29;20031;-73
2022/01/19 00:55:56;;;;;;;46.58;28.20;;;;;;;3.75;100.00;102037.56;4928491;28;20027;-73
2022/01/19 00:58:22;;;;;;;47.38;29.05;;;;;;;3.75;100.00;102040.31;4928954;29;20054;-72
2022/01/19 01:00:47;;;;;;;47.67;28.75;;;;;;;3.74;100.00;102046.88;4912704;29;20090;-73
2022/01/19 01:03:13;;;;;;;47.92;28.73;;;;;;;3.74;100.00;102041.38;4899632;29;20070;-72
2022/01/19 01:05:38;;;;;;;46.40;28.02;;;;;;;3.75;100.00;102037.56;4928560;29;20382;-72
2022/01/19 01:08:04;;;;;;;44.55;26.45;;;;;;;3.71;100.00;102017.06;4911693;29;20544;-72
2022/01/19 01:10:31;;;;;;;45.17;27.45;;;;;;;3.74;100.00;102000.16;4957505;28;20031;-73
2022/01/19 01:13:16;;;;;;;48.78;28.58;;;;;;;3.74;100.00;101993.81;4954811;28;20673;-72
2022/01/19 01:16:03;;;;;;;49.30;27.85;;;;;;;3.73;100.00;101976.50;4934718;28;20086;-73
2022/01/19 01:18:29;;;;;;;46.75;28.05;;;;;;;3.71;100.00;101975.84;4932448;29;20480;-72
2022/01/19 01:20:56;;;;;;;42.50;25.95;;;;;;;3.70;100.00;101976.88;4954010;28;20042;-73
2022/01/19 01:23:23;;;;;;;44.00;26.50;;;;;;;3.71;100.00;101975.84;4928183;29;20038;-72
2022/01/19 01:25:49;;;;;;;45.10;27.13;;;;;;;3.72;100.00;101980.28;4912934;29;20141;-72
2022/01/19 01:28:15;;;;;;;46.45;28.83;;;;;;;3.71;100.00;101983.25;4940252;29;20035;-72
2022/01/19 01:30:41;;;;;;;43.70;26.50;;;;;;;3.70;100.00;101982.38;4948874;28;20035;-72
2022/01/19 01:33:06;;;;;;;44.70;26.90;;;;;;;3.67;100.00;102010.28;4943850;29;20035;-72
2022/01/19 01:35:32;;;;;;;46.22;27.00;;;;;;;3.69;100.00;102010.09;4940793;29;20055;-72
2022/01/19 01:37:57;;;;;;;48.08;27.23;;;;;;;3.70;100.00;102009.03;4912563;28;20043;-72
2022/01/19 01:40:25;;;;;;;44.45;27.23;;;;;;;3.68;100.00;102006.50;4924464;29;20127;-73
2022/01/19 01:42:53;;;;;;;46.78;27.88;;;;;;;3.70;100.00;102009.88;4967205;28;20118;-73
2022/01/19 01:45:23;;;;;;;45.75;28.52;;;;;;;3.68;100.00;102001.00;4942071;28;20043;-73
2022/01/19 01:47:55;;;;;;;45.88;26.98;;;;;;;3.68;100.00;102001.00;4953073;28;20035;-73
2022/01/19 01:53:26;;;;;;;45.38;27.08;;;;;;;3.66;100.00;101997.63;4947329;28;20543;-72
2022/01/19 01:55:57;;;;;;;44.55;26.17;;;;;;;3.69;100.00;101988.13;4946249;28;20027;-73
2022/01/19 01:58:22;;;;;;;45.78;27.25;;;;;;;3.68;100.00;101980.94;4927429;29;20043;-72
2022/01/19 02:00:48;;;;;;;46.05;27.23;;;;;;;3.68;100.00;101981.78;4925867;29;20031;-72
2022/01/19 02:03:14;;;;;;;47.58;27.45;;;;;;;3.67;100.00;101971.81;4955220;28;20066;-72
2022/01/19 02:05:52;;;;;;;46.80;28.02;;;;;;;3.68;100.00;101976.28;4913044;29;20032;-72
2022/01/19 02:08:21;;;;;;;45.72;26.85;;;;;;;3.66;100.00;101981.13;4934411;29;20038;-72
2022/01/19 02:24:03;;;;;;;46.75;26.80;;;;;;;3.67;100.00;101977.31;4963170;28;20027;-72
2022/01/19 02:26:52;;;;;;;44.85;27.52;;;;;;;3.65;100.00;101984.09;4941422;29;20058;-72
2022/01/19 02:36:29;;;;;;;51.17;29.88;;;;;;;3.61;100.00;101969.09;4942368;29;20038;-72
2022/01/19 02:40:18;;;;;;;44.70;25.95;;;;;;;3.64;100.00;101961.25;4930447;29;20113;-73
2022/01/19 02:50:55;;;;;;;45.10;26.90;;;;;;;3.65;100.00;101962.09;4927527;29;20025;-73
2022/01/19 02:53:20;;;;;;;52.00;28.90;;;;;;;3.64;100.00;101960.44;4943750;29;20034;-73
2022/01/19 02:55:46;;;;;;;46.63;27.85;;;;;;;3.64;100.00;101955.78;4929838;29;20649;-73
2022/01/19 02:58:14;;;;;;;46.42;27.05;;;;;;;3.63;100.00;101953.25;4929319;28;20480;-73
2022/01/19 03:08:42;;;;;;;45.38;27.20;;;;;;;3.62;100.00;101960.63;4945183;28;20024;-72
2022/01/19 03:09:04;;;;;;;48.83;27.42;;;;;;;3.63;100.00;101953.25;4954880;28;20039;-73
2022/01/19 03:11:29;;;;;;;42.50;26.73;;;;;;;3.62;100.00;101948.78;4951598;28;20028;-72
2022/01/19 03:13:55;;;;;;;44.50;26.10;;;;;;;3.62;100.00;101946.88;4935685;28;20059;-73
2022/01/19 03:16:20;;;;;;;44.03;27.05;;;;;;;3.62;100.00;101943.31;4911685;29;20567;-73
2022/01/19 03:18:47;;;;;;;47.20;27.38;;;;;;;3.63;100.00;101947.75;4956121;28;20077;-72
2022/01/19 03:21:12;;;;;;;48.03;28.15;;;;;;;3.61;100.00;101942.47;4941601;28;20027;-72
2022/01/19 03:23:38;;;;;;;48.15;27.60;;;;;;;3.64;100.00;101938.44;4920867;29;20035;-73
2022/01/19 03:26:06;;;;;;;44.38;26.60;;;;;;;3.58;100.00;101940.97;4942212;29;20045;-72
2022/01/19 03:28:35;;;;;;;41.92;25.20;;;;;;;3.60;100.00;101937.19;4954365;28;20038;-73
2022/01/19 03:31:03;;;;;;;45.03;27.42;;;;;;;3.60;100.00;101938.03;4965156;28;20049;-72
2022/01/19 03:33:29;;;;;;;45.10;27.00;;;;;;;3.61;100.00;101933.38;4947326;28;20028;-72
2022/01/19 03:35:54;;;;;;;44.92;27.30;;;;;;;3.58;100.00;101938.22;4929019;29;20031;-73
2022/01/19 03:38:20;;;;;;;45.42;26.25;;;;;;;3.62;100.00;101935.91;4944366;29;20035;-73
2022/01/19 03:40:45;;;;;;;43.97;26.27;;;;;;;3.60;100.00;101931.69;4924661;29;20048;-73
2022/01/19 03:43:11;;;;;;;45.22;26.50;;;;;;;3.60;100.00;101927.03;4970707;28;20054;-72
2022/01/19 03:45:37;;;;;;;48.70;27.58;;;;;;;3.60;100.00;101929.78;4935460;29;20585;-73
2022/01/19 03:48:23;;;;;;;44.63;26.77;;;;;;;3.61;100.00;101934.22;4916580;28;20480;-73
2022/01/19 03:50:49;;;;;;;54.55;27.60;;;;;;;3.59;100.00;101930.84;4928412;29;20035;-73
2022/01/19 03:53:14;;;;;;;45.70;25.90;;;;;;;3.61;100.00;101934.22;4909868;28;20054;-73
2022/01/19 03:55:40;;;;;;;45.65;26.38;;;;;;;3.61;100.00;101934.22;4924600;29;20078;-72
2022/01/19 03:58:05;;;;;;;49.45;28.13;;;;;;;3.59;100.00;101925.34;4942526;29;20444;-73
2022/01/19 04:00:35;;;;;;;45.83;26.80;;;;;;;3.61;100.00;101927.88;4938607;29;20519;-72
2022/01/19 04:03:01;;;;;;;47.22;27.73;;;;;;;3.59;100.00;101941.81;4956358;28;20031;-72
2022/01/19 04:05:41;;;;;;;46.97;26.73;;;;;;;3.57;100.00;101932.97;4925929;29;20436;-72
2022/01/19 04:08:06;;;;;;;45.20;26.08;;;;;;;3.60;100.00;101940.78;4941796;29;20074;-73
2022/01/19 04:10:32;;;;;;;46.05;26.33;;;;;;;3.58;100.00;101935.50;4894942;29;20039;-72
2022/01/19 04:13:09;;;;;;;49.85;25.95;;;;;;;3.58;100.00;101937.41;4921845;29;20036;-72
2022/01/19 04:15:36;;;;;;;47.17;27.50;;;;;;;3.58;100.00;101934.66;4941754;28;20024;-72
2022/01/19 04:18:03;;;;;;;45.72;26.77;;;;;;;3.58;100.00;101931.91;4926174;28;20542;-72
2022/01/19 04:20:28;;;;;;;45.55;26.08;;;;;;;3.56;100.00;101937.59;4931783;29;20544;-72
2022/01/19 04:22:54;;;;;;;47.78;26.50;;;;;;;3.56;100.00;101942.25;4926801;29;20050;-72
2022/01/19 04:25:19;;;;;;;45.78;26.08;;;;;;;3.58;100.00;101942.88;4956759;28;20119;-73
2022/01/19 04:27:45;;;;;;;47.78;26.42;;;;;;;3.56;100.00;101947.75;4931853;29;20107;-73
2022/01/19 04:30:13;;;;;;;51.35;27.08;;;;;;;3.55;100.00;101935.06;4927248;29;20098;-73
2022/01/19 04:32:47;;;;;;;55.67;29.08;;;;;;;3.56;100.00;101928.50;4942593;28;20055;-72
2022/01/19 04:35:15;;;;;;;44.47;26.05;;;;;;;3.55;100.00;101933.16;4925785;29;20106;-72
2022/01/19 05:07:57;;;;;;;43.00;25.02;;;;;;;3.53;100.00;101920.69;4906881;29;20039;-72
2022/01/19 05:13:32;;;;;;;44.22;24.58;;;;;;;3.55;100.00;101918.59;4908509;29;20047;-72
2022/01/19 05:15:57;;;;;;;43.88;24.92;;;;;;;3.53;100.00;101921.53;4909366;29;20139;-73
2022/01/19 05:18:23;;;;;;;41.83;23.38;;;;;;;3.54;100.00;101925.16;4875445;29;20040;-73
2022/01/19 05:20:48;;;;;;;43.50;24.17;;;;;;;3.52;100.00;101928.09;4905347;29;20043;-73
2022/01/19 05:23:17;;;;;;;42.17;23.98;;;;;;;3.52;100.00;101924.53;4890144;29;20098;-73
2022/01/19 05:25:43;;;;;;;43.88;23.75;;;;;;;3.52;100.00;101919.03;4896775;29;20190;-73
2022/01/19 05:28:09;;;;;;;43.42;24.65;;;;;;;3.52;100.00;101922.59;4890701;29;20122;-73
2022/01/19 05:30:34;;;;;;;38.72;23.63;;;;;;;3.51;100.00;101912.69;4915293;29;20144;-74
2022/01/19 05:33:00;;;;;;;41.53;24.50;;;;;;;3.49;100.00;101920.28;4906457;29;20051;-73
2022/01/19 05:35:27;;;;;;;39.85;23.60;;;;;;;3.52;100.00;101924.53;4923358;29;20035;-72
2022/01/19 05:37:53;;;;;;;41.10;23.73;;;;;;;3.52;100.00;101924.53;4941507;29;20043;-72
2022/01/19 05:40:19;;;;;;;41.97;23.67;;;;;;;3.49;100.00;101925.78;4944494;28;20567;-72
2022/01/19 05:42:47;;;;;;;43.75;24.30;;;;;;;3.51;100.00;101926.44;4944476;29;20177;-73
2022/01/19 05:45:13;;;;;;;42.83;23.88;;;;;;;3.49;100.00;101923.03;4928756;28;20039;-73
2022/01/19 05:47:38;;;;;;;40.95;22.77;;;;;;;3.50;100.00;101926.63;4958524;28;20027;-72
2022/01/19 05:50:04;;;;;;;39.75;23.27;;;;;;;3.47;100.00;101932.53;4947426;29;20047;-73
2022/01/19 05:52:30;;;;;;;41.78;23.60;;;;;;;3.48;100.00;101928.72;4928318;29;20036;-73
2022/01/19 05:54:55;;;;;;;38.65;23.00;;;;;;;3.48;100.00;101928.72;4940521;28;20020;-73
2022/01/19 05:57:21;;;;;;;43.72;23.65;;;;;;;3.50;100.00;101937.59;4924498;29;20035;-72
2022/01/19 05:59:46;;;;;;;39.47;23.50;;;;;;;3.50;100.00;101927.47;4933853;28;20400;-73
2022/01/19 06:02:12;;;;;;;44.17;23.70;;;;;;;3.50;100.00;101932.13;4923942;29;20649;-73
2022/01/19 06:04:38;;;;;;;39.50;23.17;;;;;;;3.48;100.00;101928.72;4966189;28;20031;-73
2022/01/19 06:07:03;;;;;;;43.08;22.70;;;;;;;3.46;100.00;101922.63;4928328;29;20097;-75
2022/01/19 06:09:47;;;;;;;41.20;23.75;;;;;;;3.48;100.00;101923.25;4944549;29;20106;-75
2022/01/19 06:12:13;;;;;;;39.35;21.80;;;;;;;3.48;100.00;101917.75;4942473;29;20031;-74
2022/01/19 06:14:40;;;;;;;44.28;23.20;;;;;;;3.48;100.00;101917.75;4914568;29;20032;-75
2022/01/19 06:17:06;;;;;;;41.00;22.02;;;;;;;3.45;100.00;101904.44;4934111;29;20086;-74
2022/01/19 06:19:31;;;;;;;41.47;21.98;;;;;;;3.46;100.00;101914.38;4942500;28;20036;-74
2022/01/19 06:21:57;;;;;;;41.75;22.75;;;;;;;3.45;100.00;101904.44;4893226;29;20075;-75
2022/01/19 06:24:23;;;;;;;40.55;21.85;;;;;;;3.44;100.00;101905.50;4936533;29;20035;-74
2022/01/19 06:26:48;;;;;;;41.97;22.35;;;;;;;3.46;100.00;101906.97;4920353;29;20039;-75
2022/01/19 06:29:14;;;;;;;39.15;22.90;;;;;;;3.44;100.00;101911.00;4953622;28;20078;-74
2022/01/19 06:31:40;;;;;;;41.45;22.58;;;;;;;3.44;100.00;101916.50;4937841;29;20031;-75
2022/01/19 06:34:05;;;;;;;38.42;21.90;;;;;;;3.43;100.00;101912.06;4932787;29;20098;-73
2022/01/19 06:36:31;;;;;;;40.55;22.60;;;;;;;3.42;100.00;101910.34;4957788;28;20015;-73
2022/01/19 06:38:56;;;;;;;42.08;23.17;;;;;;;3.41;100.00;101915.00;4940698;28;20051;-73
2022/01/19 06:41:22;;;;;;;40.33;21.95;;;;;;;3.43;100.00;101917.56;4957586;28;20059;-72
2022/01/19 06:43:47;;;;;;;41.03;22.17;;;;;;;3.43;100.00;101923.06;4913807;29;20389;-73
2022/01/19 06:46:13;;;;;;;39.22;22.73;;;;;;;3.45;100.00;101919.00;4958763;28;20031;-72
2022/01/19 06:48:38;;;;;;;42.45;22.42;;;;;;;3.46;100.00;101919.88;4927994;29;20035;-73
2022/01/19 06:51:04;;;;;;;38.38;21.63;;;;;;;3.41;100.00;101917.75;4954552;28;20034;-73
2022/01/19 06:53:29;;;;;;;42.40;21.85;;;;;;;3.45;100.00;101920.91;4914017;28;20027;-73
2022/01/19 06:55:57;;;;;;;38.22;21.25;;;;;;;3.43;100.00;101923.06;4956242;28;20027;-72
2022/01/19 06:58:23;;;;;;;41.60;22.50;;;;;;;3.43;100.00;101915.66;4957723;28;20587;-73
2022/01/19 07:00:49;;;;;;;39.63;22.60;;;;;;;3.43;100.00;101920.31;4927420;28;20348;-73
2022/01/19 07:03:14;;;;;;;38.28;20.95;;;;;;;3.43;100.00;101920.31;4940343;29;20023;-73
2022/01/19 07:05:40;;;;;;;38.85;21.02;;;;;;;3.41;100.00;101923.25;4955783;28;20024;-73
2022/01/19 07:08:05;;;;;;;38.08;21.60;;;;;;;3.44;100.00;101924.72;4912771;29;20039;-73
2022/01/19 07:10:31;;;;;;;43.85;22.23;;;;;;;3.42;100.00;101922.19;4909333;29;20042;-73
2022/01/19 07:13:01;;;;;;;39.38;21.67;;;;;;;3.42;100.00;101919.44;4931765;28;20075;-73
2022/01/19 07:15:26;;;;;;;42.58;22.45;;;;;;;3.43;100.00;101920.31;4945621;28;20035;-73
2022/01/19 07:17:52;;;;;;;40.03;22.05;;;;;;;3.45;100.00;101931.91;4936567;28;20055;-72
2022/01/19 07:20:17;;;;;;;42.05;22.05;;;;;;;3.42;100.00;101929.59;4928677;29;20023;-72
2022/01/19 07:22:43;;;;;;;39.20;21.73;;;;;;;3.42;100.00;101929.59;4910908;29;20079;-73
2022/01/19 07:25:09;;;;;;;42.10;22.42;;;;;;;3.44;100.00;101924.72;4931423;29;20035;-73
2022/01/19 07:27:34;;;;;;;40.83;22.02;;;;;;;3.41;100.00;101917.75;4931194;28;20095;-72
2022/01/19 07:30:00;;;;;;;40.78;22.05;;;;;;;3.43;100.00;101915.66;4955926;28;20480;-70
2022/01/19 07:32:29;;;;;;;41.75;22.17;;;;;;;3.45;100.00;101912.69;4957615;28;20542;-71
2022/01/19 07:34:55;;;;;;;38.92;21.00;;;;;;;3.42;100.00;101916.69;4929827;29;20035;-70
2022/01/19 07:37:20;;;;;;;44.08;23.30;;;;;;;3.42;100.00;101915.84;4941088;29;20094;-73
2022/01/19 07:39:46;;;;;;;39.65;21.30;;;;;;;3.41;100.00;101916.91;4908626;29;20039;-74
2022/01/19 07:42:11;;;;;;;40.95;22.00;;;;;;;3.43;100.00;101912.06;4926880;29;20031;-73
2022/01/19 07:44:39;;;;;;;42.00;22.00;;;;;;;3.44;100.00;101911.00;4928529;29;20035;-73
2022/01/19 07:47:05;;;;;;;41.20;22.05;;;;;;;3.40;100.00;101906.97;4941284;28;20032;-73
2022/01/19 07:49:31;;;;;;;40.13;22.58;;;;;;;3.42;100.00;101907.63;4942838;29;20031;-73
2022/01/19 07:51:56;;;;;;;42.13;21.48;;;;;;;3.43;100.00;101899.19;4941733;29;20043;-73
2022/01/19 07:54:22;;;;;;;40.63;21.42;;;;;;;3.42;100.00;101907.63;4948578;29;20400;-73
2022/01/19 07:56:47;;;;;;;40.78;21.58;;;;;;;3.41;100.00;101898.53;4960328;28;20038;-73
2022/01/19 07:59:13;;;;;;;39.80;21.50;;;;;;;3.44;100.00;101911.00;4953914;28;20042;-73
2022/01/19 08:01:39;;;;;;;40.75;22.15;;;;;;;3.44;100.00;101922.00;4943609;29;20039;-70
2022/01/19 08:04:04;;;;;;;43.28;22.02;;;;;;;3.44;100.00;101922.81;4958491;28;20039;-70
2022/01/19 08:06:30;;;;;;;38.65;21.20;;;;;;;3.44;100.00;101914.59;4970628;28;20032;-71
2022/01/19 08:08:55;;;;;;;38.08;21.77;;;;;;;3.44;100.00;101917.34;4958836;28;20034;-70
2022/01/19 08:11:21;;;;;;;41.10;20.45;;;;;;;3.43;100.00;101918.41;4943074;29;20035;-70
2022/01/19 08:13:47;;;;;;;43.10;21.98;;;;;;;3.45;100.00;101915.44;4959765;29;20031;-71
2022/01/19 08:16:12;;;;;;;39.30;21.00;;;;;;;3.46;100.00;101926.22;4944847;29;20109;-70
2022/01/19 08:18:38;;;;;;;41.60;21.55;;;;;;;3.44;100.00;101925.56;4960692;28;20038;-71
2022/01/19 08:21:03;;;;;;;40.17;21.45;;;;;;;3.45;100.00;101927.25;4960298;28;20039;-71
2022/01/19 08:23:29;;;;;;;42.53;21.80;;;;;;;3.47;100.00;101932.53;4946266;29;20038;-70
2022/01/19 08:25:54;;;;;;;40.67;22.52;;;;;;;3.45;100.00;101929.16;4947704;28;20079;-71
2022/01/19 08:28:20;;;;;;;42.33;22.08;;;;;;;3.47;100.00;101927.06;4958735;28;20042;-71
2022/01/19 08:30:46;;;;;;;40.78;21.90;;;;;;;3.46;100.00;101931.72;4945399;28;20034;-71
2022/01/19 08:33:12;;;;;;;40.00;21.75;;;;;;;3.46;100.00;101930.88;4949535;28;20540;-71
2022/01/19 08:35:38;;;;;;;42.35;21.83;;;;;;;3.47;100.00;101935.28;4943810;29;20020;-70
2022/01/19 08:38:03;;;;;;;41.67;22.67;;;;;;;3.47;100.00;101941.63;4951356;28;20083;-71
2022/01/19 08:40:30;;;;;;;43.22;21.52;;;;;;;3.47;100.00;101938.03;4960796;28;20059;-70
2022/01/19 08:42:56;;;;;;;40.13;21.75;;;;;;;3.49;100.00;101938.69;4959403;28;20037;-70
2022/01/19 08:45:21;;;;;;;39.50;21.08;;;;;;;3.49;100.00;101936.78;4942626;28;20035;-70
2022/01/19 08:47:47;;;;;;;40.33;22.33;;;;;;;3.53;100.00;101934.44;4958387;28;20038;-70
2022/01/19 08:50:13;;;;;;;41.90;22.30;;;;;;;3.50;100.00;101930.22;4958857;28;20547;-70
2022/01/19 08:52:39;;;;;;;41.42;21.63;;;;;;;3.50;100.00;101927.47;4960159;29;20031;-70
2022/01/19 08:55:05;;;;;;;42.90;21.65;;;;;;;3.51;100.00;101929.16;4959473;28;20368;-71
2022/01/19 08:57:31;;;;;;;44.10;22.58;;;;;;;3.53;100.00;101921.53;4933632;28;20102;-70
2022/01/19 08:59:56;;;;;;;45.75;23.00;;;;;;;3.55;100.00;101932.34;4957395;29;20047;-70
2022/01/19 09:02:22;;;;;;;45.15;23.63;;;;;;;3.57;100.00;101936.56;4973071;28;20027;-70
2022/01/19 09:04:47;;;;;;;44.13;23.05;;;;;;;3.59;100.00;101944.56;4957836;28;20028;-70
2022/01/19 09:07:13;;;;;;;45.97;24.23;;;;;;;3.62;100.00;101949.63;4926134;29;20039;-70
2022/01/19 09:09:39;;;;;;;44.10;23.75;;;;;;;3.64;100.00;101955.78;4941626;29;20035;-70
2022/01/19 09:12:04;;;;;;;47.22;23.52;;;;;;;3.66;100.00;101952.81;4959762;28;20038;-71
2022/01/19 09:14:31;;;;;;;44.50;23.80;;;;;;;3.68;100.00;101965.28;4955627;28;20071;-71
2022/01/19 09:16:57;;;;;;;47.97;23.17;;;;;;;3.70;100.00;101960.41;4959112;28;20047;-70
2022/01/19 09:19:23;;;;;;;41.17;22.83;;;;;;;3.72;100.00;101963.78;4948640;29;20031;-70
2022/01/19 09:21:49;;;;;;;44.85;23.50;;;;;;;3.75;100.00;101968.88;4926983;29;20042;-71
2022/01/19 09:24:15;;;;;;;44.55;23.23;;;;;;;3.78;100.00;101967.59;4943603;28;20073;-70
2022/01/19 09:26:41;;;;;;;44.63;22.80;;;;;;;3.81;100.00;101970.75;4957959;28;20038;-71
2022/01/19 09:29:06;;;;;;;50.47;24.67;;;;;;;3.84;100.00;101976.88;4943707;29;20035;-70
2022/01/19 09:31:33;;;;;;;43.55;23.90;;;;;;;3.87;100.00;101979.19;4930654;29;20066;-71
2022/01/19 09:34:09;;;;;;;44.05;22.85;;;;;;;3.89;100.00;101977.09;4942892;29;20031;-71
2022/01/19 09:36:44;;;;;;;44.70;22.98;;;;;;;3.91;100.00;101974.97;4958676;28;20054;-71
2022/01/19 09:39:10;;;;;;;50.03;25.20;;;;;;;3.94;100.00;101975.41;4951396;28;20054;-71
2022/01/19 09:41:35;;;;;;;49.65;25.40;;;;;;;3.96;100.00;101969.69;4973112;28;20039;-71
2022/01/19 09:44:01;;;;;;;38.90;21.80;;;;;;;3.99;100.00;101970.09;4960098;28;20078;-71
2022/01/19 09:46:29;;;;;;;48.60;23.08;;;;;;;4.01;100.00;101970.75;4930139;29;20038;-71
2022/01/19 09:48:54;;;;;;;47.60;24.60;;;;;;;4.05;100.00;101973.91;4959545;28;20031;-72
2022/01/19 09:51:20;;;;;;;43.85;22.30;;;;;;;4.09;100.00;101980.63;4924977;29;20042;-71
2022/01/19 09:53:46;;;;;;;44.53;23.23;;;;;;;4.11;100.00;101972.19;4940477;29;20035;-72
2022/01/19 09:56:12;;;;;;;49.50;24.92;;;;;;;4.14;100.00;101969.00;4960763;28;20097;-72
2022/01/19 09:58:37;;;;;;;45.50;22.75;;;;;;;4.16;100.00;101969.66;4961149;28;20035;-72
2022/01/19 10:01:03;;;;;;;48.45;23.83;;;;;;;4.19;100.00;101974.72;4956792;28;20388;-74
2022/01/19 10:03:31;;;;;;;48.22;24.02;;;;;;;4.21;100.00;101970.69;4951655;28;20506;-71
2022/01/19 10:06:07;;;;;;;46.97;24.55;;;;;;;4.23;100.00;101971.31;4964080;28;20034;-71
2022/01/19 10:08:41;;;;;;;47.15;23.50;;;;;;;4.25;100.00;101958.19;4958462;28;20111;-71
2022/01/19 10:19:34;;;;;;;45.75;23.33;;;;;;;4.35;100.00;101957.72;4953675;28;20039;-71
2022/01/19 10:22:06;;;;;;;45.30;22.92;;;;;;;4.40;100.00;101957.94;4939413;29;20050;-72
2022/01/19 10:24:39;;;;;;;44.35;23.45;;;;;;;4.42;100.00;101953.03;4961136;28;20393;-72
2022/01/19 10:27:32;;;;;;;45.55;22.83;;;;;;;4.45;100.00;101960.84;4970392;28;20094;-72
2022/01/19 10:30:03;;;;;;;45.38;23.52;;;;;;;4.49;100.00;101961.28;4957521;28;20105;-72
2022/01/19 10:32:54;;;;;;;42.13;21.88;;;;;;;4.53;100.00;101959.75;4934126;28;20089;-72
2022/01/19 10:35:30;;;;;;;43.58;22.73;;;;;;;4.58;100.00;101973.72;4939021;29;20050;-72
2022/01/19 10:38:06;;;;;;;40.92;22.65;;;;;;;4.62;100.00;101969.44;4970666;28;20155;-72
2022/01/19 10:40:33;;;;;;;40.88;21.48;;;;;;;4.66;100.00;101965.22;4959441;28;20501;-72
2022/01/19 10:42:58;;;;;;;44.15;22.80;;;;;;;4.68;100.00;101963.09;4948616;29;20047;-72
2022/01/19 10:45:23;;;;;;;43.55;22.15;;;;;;;4.70;100.00;101960.94;4940908;29;20027;-73
2022/01/19 10:47:50;;;;;;;43.53;22.80;;;;;;;4.75;100.00;101953.94;4940825;28;20087;-72
2022/01/19 10:50:21;;;;;;;43.13;22.40;;;;;;;4.77;100.00;101943.56;4922747;29;20046;-72
2022/01/19 10:52:46;;;;;;;46.97;23.77;;;;;;;4.81;100.00;101942.06;4969979;28;20403;-72
2022/01/19 10:55:23;;;;;;;40.83;22.02;;;;;;;4.84;100.00;101939.69;4942091;29;20114;-72
2022/01/19 10:57:50;;;;;;;43.72;21.65;;;;;;;4.88;100.00;101935.44;4943094;29;20074;-72
2022/01/19 11:00:19;;;;;;;40.03;21.40;;;;;;;4.96;100.00;101952.75;4940474;29;20035;-72
2022/01/19 11:02:46;;;;;;;44.58;22.35;;;;;;;5.03;100.00;101945.31;4957917;28;20055;-72
2022/01/19 11:05:11;;;;;;;43.28;23.40;;;;;;;5.07;100.00;101933.63;4939187;29;20114;-72
2022/01/19 11:07:37;;;;;;;46.70;23.35;;;;;;;5.13;100.00;101935.50;4927457;29;20090;-72
2022/01/19 11:10:18;;;;;;;46.80;24.30;;;;;;;5.20;100.00;101926.31;4938607;28;20035;-72
2022/01/19 11:12:56;;;;;;;46.13;23.90;;;;;;;5.24;100.00;101922.06;4922200;29;20044;-72
2022/01/19 11:15:21;;;;;;;45.75;23.30;;;;;;;5.29;100.00;101919.47;4955265;28;20054;-72
2022/01/19 11:17:47;;;;;;;45.30;23.63;;;;;;;5.37;100.00;101921.94;4937238;29;20039;-75
2022/01/19 11:20:15;;;;;;;44.55;23.75;;;;;;;5.45;100.00;101918.91;4927633;29;20039;-75
2022/01/19 11:23:22;;;;;;;47.10;24.45;;;;;;;5.51;100.00;101920.75;4936088;29;20037;-73
2022/01/19 11:26:27;;;;;;;42.88;23.75;;;;;;;5.60;100.00;101941.47;4939520;28;20054;-74
2022/01/19 11:28:53;;;;;;;45.80;23.63;;;;;;;5.69;100.00;101935.66;4923131;28;20047;-71
2022/01/19 11:31:22;;;;;;;43.08;23.08;;;;;;;5.75;100.00;101934.75;4958115;28;20147;-72
2022/01/19 11:33:56;;;;;;;42.17;22.83;;;;;;;5.82;100.00;101924.47;4956826;28;20038;-73
2022/01/19 11:36:24;;;;;;;38.92;21.40;;;;;;;5.87;100.00;101921.06;4948141;28;20036;-75
2022/01/19 11:39:03;;;;;;;40.45;23.58;;;;;;;5.94;100.00;101913.59;4966614;28;20118;-72
2022/01/19 11:41:48;;;;;;;39.45;22.67;;;;;;;6.01;100.00;101911.59;4942777;28;20407;-72
2022/01/19 11:44:17;;;;;;;41.42;22.83;;;;;;;6.07;100.00;101912.59;4951942;28;20255;-72
2022/01/19 11:46:52;;;;;;;40.85;21.65;;;;;;;6.11;100.00;101911.06;4952960;28;20038;-72
2022/01/19 11:49:46;;;;;;;40.08;22.25;;;;;;;6.17;100.00;101915.66;4940380;29;20032;-72
2022/01/19 11:52:15;;;;;;;38.42;21.52;;;;;;;6.18;100.00;101923.69;4927540;29;20401;-72
2022/01/19 11:54:40;;;;;;;45.70;23.40;;;;;;;6.25;100.00;101912.59;4918769;29;20050;-72
2022/01/19 11:57:11;;;;;;;40.42;22.45;;;;;;;6.31;100.00;101913.59;4959349;28;20032;-72
2022/01/19 11:59:48;;;;;;;40.58;21.75;;;;;;;6.38;100.00;101900.53;4959478;28;20035;-72
2022/01/19 12:02:33;;;;;;;41.55;21.60;;;;;;;6.47;100.00;101899.16;4940805;29;20113;-72
2022/01/19 12:04:58;;;;;;;39.40;21.83;;;;;;;6.54;100.00;101899.06;4923065;28;20430;-74
2022/01/19 12:07:40;;;;;;;37.45;21.27;;;;;;;6.63;100.00;101893.00;4958499;28;20181;-72
2022/01/19 12:10:08;;;;;;;36.27;20.97;;;;;;;6.71;100.00;101892.66;4942525;29;20569;-72
2022/01/19 12:12:39;;;;;;;38.45;21.17;;;;;;;6.81;100.00;101889.31;4940140;28;20277;-72
2022/01/19 12:15:08;;;;;;;38.78;21.40;;;;;;;6.90;100.00;101876.84;4946099;28;20448;-72
2022/01/19 12:17:55;;;;;;;37.95;20.75;;;;;;;7.00;100.00;101878.22;4909143;28;20392;-72
2022/01/19 12:20:46;;;;;;;37.88;19.75;;;;;;;7.11;100.00;101878.22;4944378;28;20441;-72
2022/01/19 12:23:31;;;;;;;35.53;19.70;;;;;;;7.20;100.00;101859.38;4955676;28;20034;-73
2022/01/19 12:25:58;;;;;;;36.25;20.52;;;;;;;7.29;100.00;101857.09;4912734;28;20039;-74
2022/01/19 12:28:42;;;;;;;35.40;19.25;;;;;;;7.39;100.00;101862.88;4939891;29;20381;-74
2022/01/19 12:31:26;;;;;;;31.75;18.77;;;;;;;7.49;100.00;101862.25;4936274;29;20489;-73
2022/01/19 12:34:07;;;;;;;34.00;18.20;;;;;;;7.56;100.00;101863.00;4960037;28;20041;-72